createdAt,value
2018-07-22T00:00:25.176Z,0.00
2018-07-22T00:01:25.013Z,0.00
2018-07-22T00:02:24.983Z,0.00
2018-07-22T00:03:24.831Z,0.00
2018-07-22T00:04:24.786Z,0.00
2018-07-22T00:05:24.695Z,0.00
2018-07-22T00:06:24.739Z,0.00
2018-07-22T00:07:24.551Z,0.00
2018-07-22T00:11:10.648Z,0.00
2018-07-22T00:12:10.624Z,0.00
2018-07-22T00:13:10.471Z,0.00
2018-07-22T00:14:10.483Z,0.00
2018-07-22T00:15:10.308Z,0.00
2018-07-22T00:16:10.376Z,0.00
2018-07-22T00:17:10.141Z,0.00
2018-07-22T00:18:10.134Z,0.00
2018-07-22T00:19:10.011Z,0.00
2018-07-22T00:20:09.967Z,0.00
2018-07-22T00:21:09.847Z,0.00
2018-07-22T00:22:09.881Z,0.00
2018-07-22T00:23:09.684Z,0.00
2018-07-22T00:24:09.669Z,0.00
2018-07-22T00:25:09.520Z,0.00
2018-07-22T00:26:09.593Z,0.00
2018-07-22T00:27:09.391Z,0.00
2018-07-22T00:28:09.382Z,0.00
2018-07-22T00:29:09.215Z,0.00
2018-07-22T00:30:09.206Z,0.00
2018-07-22T00:31:09.102Z,0.00
2018-07-22T00:32:09.041Z,0.00
2018-07-22T00:33:08.904Z,0.00
2018-07-22T00:35:51.166Z,0.00
2018-07-22T00:36:51.158Z,0.00
2018-07-22T00:37:50.971Z,0.00
2018-07-22T00:38:50.924Z,0.00
2018-07-22T00:39:50.806Z,0.00
2018-07-22T00:40:50.842Z,0.00
2018-07-22T00:41:50.678Z,0.00
2018-07-22T00:42:50.642Z,0.00
2018-07-22T00:43:50.514Z,0.00
2018-07-22T00:44:50.455Z,0.00
2018-07-22T00:45:50.347Z,0.00
2018-07-22T00:46:50.393Z,0.00
2018-07-22T00:47:50.190Z,0.00
2018-07-22T00:48:50.172Z,0.00
2018-07-22T00:49:50.046Z,0.00
2018-07-22T00:50:50.081Z,0.00
2018-07-22T00:51:49.891Z,0.00
2018-07-22T00:52:50.964Z,0.00
2018-07-22T00:53:49.717Z,0.00
2018-07-22T00:54:49.708Z,0.00
2018-07-22T00:55:49.567Z,0.00
2018-07-22T00:56:49.637Z,0.00
2018-07-22T00:57:49.426Z,0.00
2018-07-22T00:58:49.415Z,0.00
2018-07-22T00:59:49.312Z,0.00
2018-07-22T01:00:49.219Z,0.00
2018-07-22T01:01:49.095Z,0.00
2018-07-22T01:02:49.173Z,0.00
2018-07-22T01:03:48.935Z,0.00
2018-07-22T01:04:48.958Z,0.00
2018-07-22T01:05:48.784Z,0.00
2018-07-22T01:06:48.749Z,0.00
2018-07-22T01:07:48.624Z,0.00
2018-07-22T01:08:48.739Z,0.00
2018-07-22T01:09:48.467Z,0.00
2018-07-22T01:10:48.484Z,0.00
2018-07-22T01:11:48.324Z,0.00
2018-07-22T01:12:48.286Z,0.00
2018-07-22T01:13:48.183Z,0.00
2018-07-22T01:14:48.190Z,0.00
2018-07-22T01:15:48.008Z,0.00
2018-07-22T01:16:48.026Z,0.00
2018-07-22T01:17:47.846Z,0.00
2018-07-22T01:18:47.855Z,0.00
2018-07-22T01:19:47.693Z,0.00
2018-07-22T01:20:47.735Z,0.00
2018-07-22T01:21:47.553Z,0.00
2018-07-22T01:24:29.660Z,0.00
2018-07-22T01:25:29.627Z,0.00
2018-07-22T01:26:29.480Z,0.00
2018-07-22T01:27:29.456Z,0.00
2018-07-22T01:28:29.332Z,0.00
2018-07-22T01:29:29.380Z,0.00
2018-07-22T01:30:29.176Z,0.00
2018-07-22T01:31:29.158Z,0.00
2018-07-22T01:32:29.012Z,0.00
2018-07-22T01:33:28.966Z,0.00
2018-07-22T01:34:28.874Z,0.00
2018-07-22T01:35:28.873Z,0.00
2018-07-22T01:36:28.697Z,0.00
2018-07-22T01:37:28.682Z,0.00
2018-07-22T01:38:28.545Z,0.00
2018-07-22T01:39:28.528Z,0.00
2018-07-22T01:40:28.382Z,0.00
2018-07-22T01:43:10.643Z,0.00
2018-07-22T01:45:52.684Z,0.00
2018-07-22T01:46:52.612Z,0.00
2018-07-22T01:47:52.485Z,0.00
2018-07-22T01:48:52.526Z,0.00
2018-07-22T01:49:52.360Z,0.00
2018-07-22T01:50:52.329Z,0.00
2018-07-22T01:51:52.198Z,0.00
2018-07-22T01:52:52.132Z,0.00
2018-07-22T01:53:52.023Z,0.00
2018-07-22T01:54:52.045Z,0.00
2018-07-22T01:55:51.863Z,0.00
2018-07-22T01:56:51.891Z,0.00
2018-07-22T01:57:51.704Z,0.00
2018-07-22T01:58:51.658Z,0.00
2018-07-22T01:59:51.549Z,0.00
2018-07-22T02:00:51.602Z,0.00
2018-07-22T02:01:51.389Z,0.00
2018-07-22T02:02:51.377Z,0.00
2018-07-22T02:03:51.238Z,0.00
2018-07-22T02:04:51.290Z,0.00
2018-07-22T02:05:51.122Z,0.00
2018-07-22T02:08:33.151Z,0.00
2018-07-22T02:09:33.196Z,0.00
2018-07-22T02:10:33.012Z,0.00
2018-07-22T02:11:32.925Z,0.00
2018-07-22T02:12:32.831Z,0.00
2018-07-22T02:13:32.849Z,0.00
2018-07-22T02:14:32.684Z,0.00
2018-07-22T02:15:32.654Z,0.00
2018-07-22T02:16:32.519Z,0.00
2018-07-22T02:17:32.529Z,0.00
2018-07-22T02:18:32.498Z,0.00
2018-07-22T02:19:32.337Z,0.00
2018-07-22T02:20:32.233Z,0.00
2018-07-22T02:21:32.181Z,0.00
2018-07-22T02:22:32.056Z,0.00
2018-07-22T02:23:32.056Z,0.00
2018-07-22T02:24:31.899Z,0.00
2018-07-22T02:25:31.829Z,0.00
2018-07-22T02:26:31.766Z,0.00
2018-07-22T02:27:31.779Z,0.00
2018-07-22T02:28:31.584Z,0.00
2018-07-22T02:29:31.636Z,0.00
2018-07-22T02:30:31.446Z,0.00
2018-07-22T02:31:31.433Z,0.00
2018-07-22T02:32:31.264Z,0.00
2018-07-22T02:35:13.173Z,0.00
2018-07-22T02:36:14.166Z,0.00
2018-07-22T02:37:13.008Z,0.00
2018-07-22T02:39:55.165Z,0.00
2018-07-22T02:40:55.114Z,0.00
2018-07-22T02:41:55.022Z,0.00
2018-07-22T02:42:55.037Z,0.00
2018-07-22T02:43:54.842Z,0.00
2018-07-22T02:44:54.837Z,0.00
2018-07-22T02:45:54.703Z,0.00
2018-07-22T02:46:54.689Z,0.00
2018-07-22T02:47:54.551Z,0.00
2018-07-22T02:48:54.548Z,0.00
2018-07-22T02:49:54.389Z,0.00
2018-07-22T02:50:54.368Z,0.00
2018-07-22T02:51:54.245Z,0.00
2018-07-22T02:52:54.208Z,0.00
2018-07-22T02:53:54.076Z,0.00
2018-07-22T02:54:54.073Z,0.00
2018-07-22T02:55:53.917Z,0.00
2018-07-22T02:56:53.929Z,0.00
2018-07-22T02:57:53.778Z,0.00
2018-07-22T02:58:53.707Z,0.00
2018-07-22T02:59:53.613Z,0.00
2018-07-22T03:02:35.687Z,0.00
2018-07-22T03:03:35.703Z,0.00
2018-07-22T03:04:35.509Z,0.00
2018-07-22T03:07:17.686Z,0.00
2018-07-22T03:08:18.670Z,0.00
2018-07-22T03:09:17.511Z,0.00
2018-07-22T03:10:17.526Z,0.00
2018-07-22T03:11:17.352Z,0.00
2018-07-22T03:12:17.337Z,0.00
2018-07-22T03:13:17.233Z,0.00
2018-07-22T03:14:17.238Z,0.00
2018-07-22T03:15:17.066Z,0.00
2018-07-22T03:16:17.053Z,0.00
2018-07-22T03:17:16.882Z,0.00
2018-07-22T03:18:16.864Z,0.00
2018-07-22T03:19:16.726Z,0.00
2018-07-22T03:20:16.701Z,0.00
2018-07-22T03:21:16.566Z,0.00
2018-07-22T03:22:16.585Z,0.00
2018-07-22T03:23:16.449Z,0.00
2018-07-22T03:24:16.388Z,0.00
2018-07-22T03:25:16.256Z,0.00
2018-07-22T03:27:58.197Z,0.00
2018-07-22T03:28:58.189Z,0.00
2018-07-22T03:29:58.013Z,0.00
2018-07-22T03:30:58.016Z,0.00
2018-07-22T03:31:57.857Z,0.00
2018-07-22T03:32:57.847Z,0.00
2018-07-22T03:33:57.710Z,0.00
2018-07-22T03:34:57.725Z,5.63
2018-07-22T03:35:57.538Z,5.63
2018-07-22T03:38:39.694Z,5.63
2018-07-22T03:39:39.632Z,5.63
2018-07-22T03:40:39.520Z,5.63
2018-07-22T03:43:21.697Z,5.63
2018-07-22T03:44:21.647Z,11.25
2018-07-22T03:45:21.521Z,11.25
2018-07-22T03:46:21.558Z,11.25
2018-07-22T03:47:21.375Z,11.25
2018-07-22T03:48:21.406Z,11.25
2018-07-22T03:50:45.679Z,16.88
2018-07-22T03:51:45.655Z,16.88
2018-07-22T03:52:45.531Z,16.88
2018-07-22T03:53:46.521Z,22.50
2018-07-22T03:54:45.367Z,22.50
2018-07-22T03:55:45.371Z,22.50
2018-07-22T03:56:45.215Z,22.50
2018-07-22T03:57:45.181Z,28.13
2018-07-22T03:58:45.075Z,28.13
2018-07-22T03:59:45.130Z,28.13
2018-07-22T04:00:44.917Z,33.75
2018-07-22T04:03:27.205Z,39.38
2018-07-22T04:04:27.243Z,39.38
2018-07-22T04:05:27.051Z,39.38
2018-07-22T04:06:27.019Z,45.00
2018-07-22T04:07:26.869Z,45.00
2018-07-22T04:08:26.830Z,45.00
2018-07-22T04:09:26.743Z,50.63
2018-07-22T04:10:26.765Z,50.63
2018-07-22T04:11:26.555Z,56.25
2018-07-22T04:14:08.691Z,61.88
2018-07-22T04:15:08.676Z,61.88
2018-07-22T04:16:08.528Z,61.88
2018-07-22T04:17:08.555Z,67.50
2018-07-22T04:18:08.377Z,67.50
2018-07-22T04:19:08.368Z,73.13
2018-07-22T04:20:08.235Z,73.13
2018-07-22T04:21:08.164Z,73.13
2018-07-22T04:43:50.324Z,135.00
2018-07-22T04:44:50.114Z,140.63
2018-07-22T04:45:50.142Z,140.63
2018-07-22T04:46:49.973Z,146.25
2018-07-22T04:47:49.914Z,151.88
2018-07-22T04:48:49.801Z,151.88
2018-07-22T04:51:31.717Z,157.50
2018-07-22T04:52:31.717Z,157.50
2018-07-22T04:53:31.587Z,163.13
2018-07-22T04:54:31.522Z,163.13
2018-07-22T04:55:31.388Z,168.75
2018-07-22T04:56:31.376Z,174.38
2018-07-22T04:57:31.252Z,174.38
2018-07-22T04:58:31.252Z,180.00
2018-07-22T04:59:31.060Z,180.00
2018-07-22T05:00:31.055Z,185.63
2018-07-22T05:01:30.945Z,185.63
2018-07-22T05:02:30.902Z,191.25
2018-07-22T05:03:30.759Z,196.88
2018-07-22T05:06:12.761Z,208.13
2018-07-22T05:07:12.682Z,213.75
2018-07-22T05:08:12.554Z,213.75
2018-07-22T05:09:12.579Z,219.38
2018-07-22T05:10:12.384Z,225.00
2018-07-22T05:11:12.406Z,225.00
2018-07-22T05:12:12.259Z,230.63
2018-07-22T05:13:12.195Z,230.63
2018-07-22T05:14:12.078Z,236.25
2018-07-22T05:15:12.119Z,236.25
2018-07-22T05:16:11.929Z,241.88
2018-07-22T05:17:11.947Z,241.88
2018-07-22T05:18:11.765Z,247.50
2018-07-22T05:19:11.729Z,247.50
2018-07-22T05:20:11.601Z,253.13
2018-07-22T05:21:11.638Z,258.75
2018-07-22T05:22:11.524Z,258.75
2018-07-22T05:24:53.724Z,270.00
2018-07-22T05:25:53.750Z,270.00
2018-07-22T05:26:53.546Z,275.63
2018-07-22T05:27:53.562Z,281.25
2018-07-22T05:28:53.499Z,286.88
2018-07-22T05:29:53.374Z,286.88
2018-07-22T05:30:53.250Z,286.88
2018-07-22T05:31:53.277Z,292.50
2018-07-22T05:32:53.106Z,292.50
2018-07-22T05:33:53.093Z,298.13
2018-07-22T05:34:52.931Z,303.75
2018-07-22T05:35:52.904Z,303.75
2018-07-22T05:36:52.753Z,309.38
2018-07-22T05:37:52.840Z,315.00
2018-07-22T05:38:52.645Z,315.00
2018-07-22T05:39:52.633Z,320.63
2018-07-22T05:40:52.456Z,320.63
2018-07-22T05:41:52.428Z,326.25
2018-07-22T05:42:52.309Z,331.88
2018-07-22T05:43:52.345Z,343.13
2018-07-22T05:44:52.141Z,343.13
2018-07-22T05:45:52.137Z,348.75
2018-07-22T05:46:51.989Z,348.75
2018-07-22T05:47:51.987Z,354.38
2018-07-22T05:48:51.838Z,360.00
2018-07-22T05:49:51.792Z,365.63
2018-07-22T05:50:51.666Z,371.25
2018-07-22T05:51:51.670Z,371.25
2018-07-22T05:52:51.509Z,382.50
2018-07-22T05:53:51.507Z,388.13
2018-07-22T05:54:51.379Z,382.50
2018-07-22T05:55:51.459Z,388.13
2018-07-22T05:56:51.195Z,393.75
2018-07-22T05:59:33.253Z,399.38
2018-07-22T06:00:33.204Z,399.38
2018-07-22T06:01:33.063Z,405.00
2018-07-22T06:02:33.117Z,410.63
2018-07-22T06:03:32.912Z,416.25
2018-07-22T06:04:34.196Z,421.88
2018-07-22T06:05:32.764Z,421.88
2018-07-22T06:06:32.736Z,427.50
2018-07-22T06:07:32.603Z,427.50
2018-07-22T06:08:32.645Z,433.13
2018-07-22T06:09:32.485Z,438.75
2018-07-22T06:10:33.534Z,444.38
2018-07-22T06:11:32.284Z,450.00
2018-07-22T06:12:32.250Z,455.63
2018-07-22T06:13:32.118Z,455.63
2018-07-22T06:15:30.811Z,461.25
2018-07-22T06:15:32.011Z,461.25
2018-07-22T06:16:31.963Z,461.25
2018-07-22T06:17:31.811Z,466.88
2018-07-22T06:18:31.779Z,466.88
2018-07-22T06:19:31.671Z,472.50
2018-07-22T06:20:31.690Z,472.50
2018-07-22T06:21:31.579Z,478.13
2018-07-22T06:22:31.491Z,489.38
2018-07-22T06:23:31.386Z,495.00
2018-07-22T06:24:31.309Z,523.13
2018-07-22T06:25:31.220Z,669.38
2018-07-22T06:26:31.429Z,826.88
2018-07-22T06:27:31.035Z,877.50
2018-07-22T06:30:13.230Z,956.25
2018-07-22T06:31:13.258Z,967.50
2018-07-22T06:32:13.091Z,973.13
2018-07-22T06:34:55.238Z,990.00
2018-07-22T06:35:55.247Z,950.63
2018-07-22T06:36:55.115Z,961.88
2018-07-22T06:37:55.040Z,995.63
2018-07-22T06:38:54.938Z,1035.00
2018-07-22T06:39:54.977Z,1040.63
2018-07-22T06:40:54.776Z,1068.75
2018-07-22T06:41:54.799Z,1085.63
2018-07-22T06:42:54.629Z,1091.25
2018-07-22T06:43:54.572Z,1085.63
2018-07-22T06:44:54.480Z,1012.50
2018-07-22T06:45:54.488Z,1018.13
2018-07-22T06:46:54.350Z,1012.50
2018-07-22T06:47:54.353Z,1018.13
2018-07-22T06:48:54.184Z,1006.88
2018-07-22T06:49:54.219Z,1001.25
2018-07-22T06:50:54.050Z,984.38
2018-07-22T06:51:54.117Z,990.00
2018-07-22T06:52:53.880Z,973.13
2018-07-22T06:53:53.949Z,990.00
2018-07-22T06:54:53.786Z,967.50
2018-07-22T06:55:53.837Z,961.88
2018-07-22T06:56:53.640Z,1085.63
2018-07-22T06:57:53.707Z,1057.50
2018-07-22T06:58:53.439Z,826.88
2018-07-22T07:01:35.744Z,793.13
2018-07-22T07:02:35.860Z,1006.88
2018-07-22T07:03:35.822Z,1023.75
2018-07-22T07:04:35.562Z,1091.25
2018-07-22T07:05:35.452Z,1063.13
2018-07-22T07:06:35.473Z,1035.00
2018-07-22T07:07:35.349Z,1220.63
2018-07-22T07:08:35.332Z,1209.38
2018-07-22T07:09:35.160Z,1085.63
2018-07-22T07:10:35.404Z,1096.88
2018-07-22T07:11:35.056Z,1091.25
2018-07-22T07:12:35.522Z,1130.63
2018-07-22T07:13:34.984Z,1220.63
2018-07-22T07:15:36.362Z,1203.75
2018-07-22T07:15:36.864Z,1125.00
2018-07-22T07:16:36.873Z,1102.50
2018-07-22T07:17:36.750Z,1080.00
2018-07-22T07:18:36.713Z,1096.88
2018-07-22T07:19:36.647Z,1153.13
2018-07-22T07:22:18.785Z,1113.75
2018-07-22T07:23:18.873Z,1068.75
2018-07-22T07:24:18.650Z,1102.50
2018-07-22T07:25:18.611Z,1096.88
2018-07-22T07:26:18.472Z,1091.25
2018-07-22T07:27:18.521Z,1108.13
2018-07-22T07:28:18.349Z,1175.63
2018-07-22T07:29:18.351Z,1147.50
2018-07-22T07:30:18.195Z,1141.88
2018-07-22T07:31:18.127Z,1147.50
2018-07-22T07:32:18.039Z,1113.75
2018-07-22T07:33:18.041Z,1141.88
2018-07-22T07:34:17.982Z,1125.00
2018-07-22T07:35:17.955Z,1147.50
2018-07-22T07:36:17.749Z,1102.50
2018-07-22T07:37:17.778Z,1125.00
2018-07-22T07:38:17.654Z,1136.25
2018-07-22T07:39:17.616Z,1158.75
2018-07-22T07:40:17.494Z,1186.88
2018-07-22T07:41:17.491Z,1102.50
2018-07-22T07:42:17.374Z,1237.50
2018-07-22T07:43:17.409Z,1231.88
2018-07-22T07:44:17.216Z,1248.75
2018-07-22T07:45:17.212Z,1276.88
2018-07-22T07:46:17.060Z,1288.13
2018-07-22T07:47:17.127Z,1254.38
2018-07-22T07:48:16.918Z,1395.00
2018-07-22T07:49:16.960Z,1513.13
2018-07-22T07:50:16.786Z,1411.88
2018-07-22T07:51:16.839Z,1608.75
2018-07-22T07:52:16.646Z,1631.25
2018-07-22T07:53:16.682Z,1614.38
2018-07-22T07:54:16.544Z,1316.25
2018-07-22T07:55:16.552Z,1321.88
2018-07-22T07:56:16.365Z,1243.13
2018-07-22T07:57:16.381Z,1327.50
2018-07-22T07:58:16.229Z,1276.88
2018-07-22T07:59:16.273Z,1164.38
2018-07-22T08:00:16.140Z,1507.50
2018-07-22T08:01:16.120Z,1164.38
2018-07-22T08:02:15.955Z,1496.25
2018-07-22T08:03:15.991Z,1451.25
2018-07-22T08:04:15.845Z,1445.63
2018-07-22T08:05:15.810Z,1479.38
2018-07-22T08:06:15.802Z,1428.75
2018-07-22T08:07:15.715Z,1501.88
2018-07-22T08:08:15.556Z,1569.38
2018-07-22T08:09:15.520Z,1653.75
2018-07-22T08:10:15.402Z,1777.50
2018-07-22T08:11:15.464Z,1918.13
2018-07-22T08:12:15.255Z,2041.88
2018-07-22T08:13:15.366Z,2306.25
2018-07-22T08:14:15.156Z,2660.63
2018-07-22T08:15:15.160Z,3020.63
2018-07-22T08:16:15.029Z,3313.13
2018-07-22T08:17:15.072Z,3279.38
2018-07-22T08:18:14.929Z,3358.13
2018-07-22T08:19:14.941Z,3178.13
2018-07-22T08:20:15.355Z,3543.75
2018-07-22T08:21:14.802Z,3493.13
2018-07-22T08:22:14.622Z,3729.38
2018-07-22T08:23:14.627Z,3729.38
2018-07-22T08:24:14.434Z,3583.13
2018-07-22T08:25:14.395Z,3555.00
2018-07-22T08:26:14.453Z,3481.88
2018-07-22T08:27:14.314Z,3532.50
2018-07-22T08:28:14.164Z,3605.63
2018-07-22T08:29:14.227Z,3403.13
2018-07-22T08:30:14.037Z,3251.25
2018-07-22T08:31:14.033Z,3690.00
2018-07-22T08:32:13.917Z,3684.38
2018-07-22T08:33:13.935Z,3723.75
2018-07-22T08:34:13.768Z,3673.13
2018-07-22T08:35:13.765Z,3481.88
2018-07-22T08:36:13.642Z,3493.13
2018-07-22T08:37:13.696Z,3526.88
2018-07-22T08:38:13.525Z,3628.13
2018-07-22T08:39:13.478Z,3555.00
2018-07-22T08:40:13.354Z,3493.13
2018-07-22T08:41:13.407Z,3684.38
2018-07-22T08:42:13.282Z,3600.00
2018-07-22T08:43:13.196Z,3600.00
2018-07-22T08:44:13.091Z,3521.25
2018-07-22T08:45:13.116Z,3684.38
2018-07-22T08:46:12.955Z,3757.50
2018-07-22T08:47:13.186Z,3898.13
2018-07-22T08:48:12.900Z,3875.63
2018-07-22T08:49:12.809Z,3819.38
2018-07-22T08:50:12.685Z,3628.13
2018-07-22T08:51:12.719Z,3476.25
2018-07-22T08:52:12.582Z,3195.00
2018-07-22T08:53:12.536Z,3296.25
2018-07-22T08:54:12.418Z,3352.50
2018-07-22T08:55:12.453Z,3864.38
2018-07-22T08:56:12.287Z,3864.38
2018-07-22T08:57:12.293Z,3667.50
2018-07-22T08:58:12.217Z,3600.00
2018-07-22T08:59:12.162Z,3690.00
2018-07-22T09:00:12.011Z,3841.88
2018-07-22T09:01:11.972Z,3105.00
2018-07-22T09:02:11.959Z,3200.63
2018-07-22T09:03:11.896Z,3346.88
2018-07-22T09:04:11.838Z,3628.13
2018-07-22T09:05:11.839Z,3808.13
2018-07-22T09:06:11.667Z,3796.88
2018-07-22T09:07:11.607Z,3673.13
2018-07-22T09:08:11.476Z,3690.00
2018-07-22T09:09:12.652Z,3954.38
2018-07-22T09:10:11.353Z,4016.25
2018-07-22T09:11:11.322Z,3915.00
2018-07-22T09:12:11.249Z,3870.00
2018-07-22T09:13:11.240Z,3870.00
2018-07-22T09:14:11.109Z,3909.38
2018-07-22T09:15:11.038Z,3943.13
2018-07-22T09:16:10.940Z,3993.75
2018-07-22T09:17:10.960Z,4044.38
2018-07-22T09:18:10.878Z,3903.75
2018-07-22T09:19:10.887Z,3915.00
2018-07-22T09:20:10.683Z,3937.50
2018-07-22T09:21:10.669Z,3836.25
2018-07-22T09:22:10.564Z,3988.13
2018-07-22T09:23:10.494Z,3999.38
2018-07-22T09:24:10.448Z,3774.38
2018-07-22T09:25:10.392Z,3847.50
2018-07-22T09:26:10.341Z,3892.50
2018-07-22T09:27:10.379Z,3954.38
2018-07-22T09:28:10.157Z,3926.25
2018-07-22T09:29:10.266Z,3791.25
2018-07-22T09:30:10.044Z,4010.63
2018-07-22T09:31:10.030Z,4044.38
2018-07-22T09:32:09.901Z,3999.38
2018-07-22T09:33:09.935Z,3982.50
2018-07-22T09:34:09.779Z,4061.25
2018-07-22T09:35:09.971Z,4061.25
2018-07-22T09:36:09.753Z,4033.13
2018-07-22T09:37:09.744Z,4089.38
2018-07-22T09:38:09.549Z,4151.25
2018-07-22T09:39:09.575Z,4123.13
2018-07-22T09:40:09.410Z,4100.63
2018-07-22T09:41:09.386Z,4095.00
2018-07-22T09:42:09.250Z,4190.63
2018-07-22T09:43:09.297Z,4145.63
2018-07-22T09:44:09.128Z,4196.25
2018-07-22T09:45:09.131Z,4218.75
2018-07-22T09:46:08.991Z,4168.13
2018-07-22T09:48:51.344Z,3785.63
2018-07-22T09:49:51.313Z,3076.88
2018-07-22T09:50:51.225Z,1260.00
2018-07-22T09:51:51.230Z,1406.25
2018-07-22T09:52:51.045Z,3757.50
2018-07-22T09:55:33.324Z,1293.75
2018-07-22T09:56:33.344Z,1215.00
2018-07-22T09:57:33.188Z,2238.75
2018-07-22T10:00:15.310Z,4235.63
2018-07-22T10:01:15.378Z,4252.50
2018-07-22T10:02:15.187Z,4280.63
2018-07-22T10:04:57.343Z,3853.13
2018-07-22T10:05:57.388Z,3858.75
2018-07-22T10:06:57.288Z,4078.13
2018-07-22T10:07:57.155Z,4123.13
2018-07-22T10:08:57.053Z,4021.88
2018-07-22T10:09:57.078Z,4027.50
2018-07-22T10:10:56.953Z,4095.00
2018-07-22T10:11:57.039Z,3965.63
2018-07-22T10:12:56.803Z,3988.13
2018-07-22T10:13:56.791Z,4083.75
2018-07-22T10:14:56.689Z,4072.50
2018-07-22T10:15:56.864Z,4162.50
2018-07-22T10:16:56.547Z,4038.75
2018-07-22T10:17:56.511Z,3780.00
2018-07-22T10:18:56.409Z,3785.63
2018-07-22T10:19:56.423Z,3628.13
2018-07-22T10:20:56.334Z,3751.88
2018-07-22T10:21:56.379Z,3616.88
2018-07-22T10:33:18.971Z,4173.75
2018-07-22T10:34:18.831Z,4252.50
2018-07-22T10:35:18.865Z,4134.38
2018-07-22T10:36:18.716Z,4089.38
2018-07-22T10:37:18.825Z,4201.88
2018-07-22T10:38:18.589Z,4269.38
2018-07-22T10:39:18.561Z,4263.75
2018-07-22T10:40:18.470Z,4140.00
2018-07-22T10:41:18.475Z,4123.13
2018-07-22T10:42:18.351Z,4100.63
2018-07-22T10:43:18.321Z,4061.25
2018-07-22T10:44:18.368Z,3931.88
2018-07-22T10:45:18.172Z,3931.88
2018-07-22T10:46:18.083Z,4089.38
2018-07-22T10:47:18.045Z,4415.63
2018-07-22T10:48:17.948Z,4432.50
2018-07-22T10:49:17.919Z,2188.13
2018-07-22T10:50:17.826Z,4128.75
2018-07-22T10:51:17.785Z,4218.75
2018-07-22T10:52:17.720Z,4151.25
2018-07-22T10:53:17.732Z,4173.75
2018-07-22T10:54:17.606Z,4201.88
2018-07-22T10:55:17.521Z,4038.75
2018-07-22T10:56:17.462Z,4140.00
2018-07-22T10:57:17.419Z,4111.88
2018-07-22T10:58:17.355Z,3819.38
2018-07-22T10:59:17.298Z,3937.50
2018-07-22T11:00:17.208Z,4038.75
2018-07-22T11:01:17.162Z,4173.75
2018-07-22T11:02:17.198Z,4162.50
2018-07-22T11:03:17.064Z,4201.88
2018-07-22T11:04:16.958Z,4291.88
2018-07-22T11:05:16.905Z,4128.75
2018-07-22T11:06:16.925Z,3830.63
2018-07-22T11:07:16.785Z,3903.75
2018-07-22T11:08:16.740Z,3971.25
2018-07-22T11:09:16.668Z,4027.50
2018-07-22T11:10:16.591Z,3211.88
2018-07-22T11:11:16.546Z,1102.50
2018-07-22T11:12:16.475Z,883.13
2018-07-22T11:13:16.436Z,877.50
2018-07-22T11:14:16.454Z,838.13
2018-07-22T11:16:58.349Z,720.00
2018-07-22T11:17:58.291Z,725.63
2018-07-22T11:18:58.236Z,2250.00
2018-07-22T11:19:58.176Z,3076.88
2018-07-22T11:20:58.123Z,3240.00
2018-07-22T11:21:58.043Z,3583.13
2018-07-22T11:22:57.957Z,2598.75
2018-07-22T11:23:57.961Z,2716.88
2018-07-22T11:24:57.837Z,2452.50
2018-07-22T11:25:57.769Z,3864.38
2018-07-22T11:26:57.699Z,3999.38
2018-07-22T11:27:57.652Z,2340.00
2018-07-22T11:28:57.584Z,1029.38
2018-07-22T11:29:57.629Z,1040.63
2018-07-22T11:30:57.442Z,1141.88
2018-07-22T11:31:57.412Z,3262.50
2018-07-22T11:32:57.323Z,2188.13
2018-07-22T11:33:57.323Z,1096.88
2018-07-22T11:34:57.184Z,2649.38
2018-07-22T11:39:03.886Z,3768.75
2018-07-22T11:40:03.857Z,3718.13
2018-07-22T11:41:03.725Z,2711.25
2018-07-22T11:43:45.888Z,3763.13
2018-07-22T11:44:45.857Z,1096.88
2018-07-22T11:45:45.737Z,832.50
2018-07-22T11:46:45.730Z,838.13
2018-07-22T11:47:45.576Z,877.50
2018-07-22T11:48:45.641Z,905.63
2018-07-22T11:49:45.457Z,967.50
2018-07-22T11:50:45.560Z,2936.25
2018-07-22T11:51:45.323Z,770.63
2018-07-22T11:52:45.361Z,691.88
2018-07-22T11:53:45.177Z,658.13
2018-07-22T11:54:45.172Z,646.88
2018-07-22T11:55:45.068Z,658.13
2018-07-22T11:56:45.079Z,675.00
2018-07-22T11:57:44.921Z,1175.63
2018-07-22T11:58:44.849Z,686.25
2018-07-22T11:59:44.773Z,663.75
2018-07-22T12:00:44.741Z,675.00
2018-07-22T12:01:44.643Z,697.50
2018-07-22T12:02:44.578Z,624.38
2018-07-22T12:03:44.530Z,596.25
2018-07-22T12:04:44.457Z,624.38
2018-07-22T12:05:44.383Z,765.00
2018-07-22T12:06:44.330Z,798.75
2018-07-22T12:07:44.251Z,821.25
2018-07-22T12:08:44.165Z,826.88
2018-07-22T12:09:44.091Z,787.50
2018-07-22T12:10:44.045Z,826.88
2018-07-22T12:11:43.960Z,804.38
2018-07-22T12:12:43.880Z,781.88
2018-07-22T12:13:43.799Z,843.75
2018-07-22T12:14:43.743Z,804.38
2018-07-22T12:15:43.670Z,725.63
2018-07-22T12:16:43.761Z,680.63
2018-07-22T12:17:43.529Z,680.63
2018-07-22T12:18:43.465Z,669.38
2018-07-22T12:19:43.407Z,652.50
2018-07-22T12:20:43.312Z,607.50
2018-07-22T12:21:43.251Z,562.50
2018-07-22T12:22:43.179Z,528.75
2018-07-22T12:23:43.103Z,506.25
2018-07-22T12:24:43.076Z,478.13
2018-07-22T12:25:42.965Z,478.13
2018-07-22T12:26:42.918Z,534.38
2018-07-22T12:27:42.817Z,601.88
2018-07-22T12:28:42.748Z,652.50
2018-07-22T12:29:42.699Z,652.50
2018-07-22T12:30:42.624Z,686.25
2018-07-22T12:31:42.551Z,658.13
2018-07-22T12:32:42.479Z,635.63
2018-07-22T12:33:42.405Z,635.63
2018-07-22T12:34:42.330Z,635.63
2018-07-22T12:35:42.267Z,691.88
2018-07-22T12:36:43.200Z,714.38
2018-07-22T12:37:42.120Z,731.25
2018-07-22T12:38:42.034Z,753.75
2018-07-22T12:39:41.974Z,776.25
2018-07-22T12:40:41.938Z,815.63
2018-07-22T12:41:41.815Z,821.25
2018-07-22T12:42:41.785Z,855.00
2018-07-22T12:43:41.673Z,843.75
2018-07-22T12:44:41.611Z,838.13
2018-07-22T12:45:41.532Z,815.63
2018-07-22T12:46:41.466Z,804.38
2018-07-22T12:47:41.429Z,770.63
2018-07-22T12:48:41.432Z,720.00
2018-07-22T12:49:41.249Z,669.38
2018-07-22T12:50:41.255Z,607.50
2018-07-22T12:51:41.103Z,556.88
2018-07-22T12:52:41.157Z,500.63
2018-07-22T12:53:41.031Z,461.25
2018-07-22T12:54:40.961Z,466.88
2018-07-22T12:55:40.807Z,461.25
2018-07-22T12:56:40.892Z,450.00
2018-07-22T12:57:40.738Z,461.25
2018-07-22T12:58:40.747Z,500.63
2018-07-22T12:59:40.533Z,556.88
2018-07-22T13:02:22.401Z,686.25
2018-07-22T13:03:22.422Z,691.88
2018-07-22T13:04:22.233Z,675.00
2018-07-22T13:05:22.295Z,669.38
2018-07-22T13:06:22.120Z,652.50
2018-07-22T13:09:04.452Z,585.00
2018-07-22T13:10:04.420Z,568.13
2018-07-22T13:11:04.241Z,562.50
2018-07-22T13:13:46.405Z,579.38
2018-07-22T13:14:46.414Z,562.50
2018-07-22T13:15:46.259Z,573.75
2018-07-22T13:18:28.524Z,624.38
2018-07-22T13:30:44.520Z,573.75
2018-07-22T13:31:44.335Z,562.50
2018-07-22T13:34:26.413Z,545.63
2018-07-22T13:36:50.908Z,523.13
2018-07-22T13:37:50.960Z,506.25
2018-07-22T13:38:50.781Z,489.38
2018-07-22T13:39:50.843Z,472.50
2018-07-22T13:40:50.659Z,466.88
2018-07-22T13:49:31.860Z,720.00
2018-07-22T13:50:31.749Z,720.00
2018-07-22T13:51:31.678Z,714.38
2018-07-22T13:54:13.895Z,742.50
2018-07-22T13:55:13.966Z,742.50
2018-07-22T13:56:13.766Z,742.50
2018-07-22T13:57:13.737Z,725.63
2018-07-22T13:58:13.629Z,714.38
2018-07-22T13:59:14.612Z,686.25
2018-07-22T14:00:13.492Z,669.38
2018-07-22T14:02:55.402Z,540.00
2018-07-22T14:03:55.514Z,506.25
2018-07-22T14:04:55.296Z,478.13
2018-07-22T14:05:55.265Z,450.00
2018-07-22T14:06:55.139Z,427.50
2018-07-22T14:07:55.177Z,405.00
2018-07-22T14:08:54.977Z,388.13
2018-07-22T14:09:54.979Z,382.50
2018-07-22T14:10:54.871Z,382.50
2018-07-22T14:11:54.944Z,388.13
2018-07-22T14:12:54.696Z,421.88
2018-07-22T14:13:54.707Z,416.25
2018-07-22T14:14:54.555Z,427.50
2018-07-22T14:15:54.642Z,421.88
2018-07-22T14:16:54.417Z,410.63
2018-07-22T14:17:54.468Z,399.38
2018-07-22T14:21:18.438Z,405.00
2018-07-22T14:22:18.478Z,405.00
2018-07-22T14:23:18.284Z,399.38
2018-07-22T14:24:18.320Z,405.00
2018-07-22T14:25:18.153Z,410.63
2018-07-22T14:28:00.443Z,444.38
2018-07-22T14:29:00.439Z,461.25
2018-07-22T14:30:00.265Z,466.88
2018-07-22T14:31:00.272Z,461.25
2018-07-22T14:32:00.123Z,461.25
2018-07-22T14:33:00.151Z,455.63
2018-07-22T14:34:00.031Z,461.25
2018-07-22T14:34:59.979Z,444.38
2018-07-22T14:35:59.846Z,455.63